Terminal Aerodrome Forecast
Issued by NWS

Home | Current Version | Previous Version | Text Only | Print | Product List | Glossary On
Versions: 1 2 3 4 5 6 7 8 9 10 11 12 13 14 15 16 17 18 19 20 21 22 23 24 25 26
000
FTUS45 KPSR 150200 AAB
TAFPHX
TAF AMD
KPHX 150258Z 1503/1524 32005KT P6SM SKC
     FM150500 09006KT P6SM SKC
     FM151500 11013KT P6SM FEW150
     FM152100 16006KT P6SM SCT150=

USA.gov is the U.S. government's official web portal to all federal, state and local government web resources and services.